Time;durP1;ratioP1;P1;durP2;ratioP2;P2;SDS_P1;SDS_P2;PMS_P1;PMS_P2;Temp;Humidity;BMP_temperature;BMP_pressure;BME280_temperature;BME280_humidity;BME280_pressure;Samples;Min_cycle;Max_cycle;Signal;HPM_P1;HPM_P2
2022/10/04 00:00:25;;;;;;;19.93;17.37;;;;;;;;;;4968226;28;20491;-40
2022/10/04 00:02:53;;;;;;;21.53;16.07;;;;;;;;;;4968393;28;20632;-43
2022/10/04 00:05:21;;;;;;;18.50;15.80;;;;;;;;;;4967293;28;20201;-39
2022/10/04 00:07:52;;;;;;;22.73;17.60;;;;;;;;;;4974419;28;20369;-42
2022/10/04 00:10:20;;;;;;;21.70;16.03;;;;;;;;;;4971023;28;20279;-41
2022/10/04 00:12:49;;;;;;;24.43;18.43;;;;;;;;;;4971657;28;20704;-41
2022/10/04 00:15:31;;;;;;;18.93;16.40;;;;;;;;;;4974111;28;20211;-41
2022/10/04 00:18:20;;;;;;;26.00;17.97;;;;;;;;;;4966730;28;20877;-42
2022/10/04 00:20:46;;;;;;;18.57;16.37;;;;;;;;;;4970078;28;21038;-42
2022/10/04 00:23:25;;;;;;;18.93;15.03;;;;;;;;;;4973727;28;20851;-42
2022/10/04 00:25:53;;;;;;;18.87;15.63;;;;;;;;;;4977747;28;20654;-42
2022/10/04 00:28:19;;;;;;;18.07;14.90;;;;;;;;;;4977484;28;20707;-42
2022/10/04 00:30:45;;;;;;;22.43;16.33;;;;;;;;;;4979399;28;20250;-40
2022/10/04 00:33:32;;;;;;;20.53;16.00;;;;;;;;;;4981044;28;20868;-42
2022/10/04 00:35:58;;;;;;;19.83;16.67;;;;;;;;;;4984488;28;20185;-43
2022/10/04 00:38:28;;;;;;;20.23;17.67;;;;;;;;;;4981797;28;20532;-41
2022/10/04 00:41:01;;;;;;;26.03;20.73;;;;;;;;;;4975594;28;20256;-41
2022/10/04 00:43:40;;;;;;;24.80;20.23;;;;;;;;;;4982824;28;20830;-42
2022/10/04 00:46:12;;;;;;;25.10;18.53;;;;;;;;;;4985871;28;20176;-42
2022/10/04 00:48:42;;;;;;;20.23;17.63;;;;;;;;;;4985153;28;20258;-41
2022/10/04 00:51:16;;;;;;;27.13;20.47;;;;;;;;;;4987664;28;20704;-42
2022/10/04 00:53:52;;;;;;;29.80;21.53;;;;;;;;;;4984818;28;20871;-41
2022/10/04 00:56:25;;;;;;;23.70;20.87;;;;;;;;;;4982972;28;20191;-42
2022/10/04 00:58:57;;;;;;;27.17;23.13;;;;;;;;;;4983748;28;20560;-42
2022/10/04 01:01:25;;;;;;;33.23;26.67;;;;;;;;;;4986798;28;20184;-41
2022/10/04 01:03:53;;;;;;;30.77;24.13;;;;;;;;;;4982141;28;20783;-42
2022/10/04 01:06:20;;;;;;;29.00;22.93;;;;;;;;;;4984955;28;20243;-44
2022/10/04 01:08:48;;;;;;;40.10;30.13;;;;;;;;;;4980809;28;20219;-43
2022/10/04 01:11:14;;;;;;;50.50;42.50;;;;;;;;;;4983324;28;20739;-43
2022/10/04 01:13:44;;;;;;;55.70;41.30;;;;;;;;;;4981424;28;20685;-43
2022/10/04 01:16:10;;;;;;;46.43;39.23;;;;;;;;;;4977917;28;20421;-43
2022/10/04 01:18:36;;;;;;;43.77;35.97;;;;;;;;;;4980712;28;20335;-44
2022/10/04 01:21:20;;;;;;;41.83;33.03;;;;;;;;;;4982202;28;20195;-45
2022/10/04 01:23:49;;;;;;;42.23;33.70;;;;;;;;;;4984299;28;20992;-42
2022/10/04 01:26:34;;;;;;;52.67;43.30;;;;;;;;;;4978796;28;20176;-42
2022/10/04 01:29:08;;;;;;;55.13;43.90;;;;;;;;;;4981599;28;20529;-41
2022/10/04 01:31:35;;;;;;;39.17;34.20;;;;;;;;;;4981194;28;20219;-43
2022/10/04 01:34:04;;;;;;;52.40;39.13;;;;;;;;;;4984952;28;20193;-43
2022/10/04 01:36:30;;;;;;;43.47;34.47;;;;;;;;;;4981585;28;21559;-43
2022/10/04 01:38:57;;;;;;;42.40;34.53;;;;;;;;;;4980589;28;20307;-42
2022/10/04 01:41:42;;;;;;;49.37;37.10;;;;;;;;;;4980782;28;20188;-43
2022/10/04 01:44:10;;;;;;;38.73;32.77;;;;;;;;;;4985880;28;20205;-43
2022/10/04 01:46:36;;;;;;;40.30;33.27;;;;;;;;;;4985274;28;20831;-43
2022/10/04 01:49:05;;;;;;;47.40;36.47;;;;;;;;;;4982676;28;20247;-43
2022/10/04 01:51:33;;;;;;;41.37;34.37;;;;;;;;;;4982364;28;20270;-42
2022/10/04 01:54:04;;;;;;;43.30;34.53;;;;;;;;;;4981447;28;21228;-42
2022/10/04 01:56:39;;;;;;;50.73;41.83;;;;;;;;;;4982381;28;20628;-42
2022/10/04 01:59:06;;;;;;;54.43;40.07;;;;;;;;;;4982955;28;20172;-42
2022/10/04 02:01:35;;;;;;;54.13;42.40;;;;;;;;;;4983838;28;20277;-42
2022/10/04 02:04:03;;;;;;;43.33;33.10;;;;;;;;;;4981683;28;20205;-42
2022/10/04 02:06:35;;;;;;;41.50;32.80;;;;;;;;;;4981111;28;20601;-42
2022/10/04 02:09:06;;;;;;;41.30;35.27;;;;;;;;;;4983762;28;20626;-42
2022/10/04 02:11:33;;;;;;;44.43;35.43;;;;;;;;;;4983137;28;20177;-43
2022/10/04 02:14:00;;;;;;;51.87;38.17;;;;;;;;;;4978681;28;20281;-45
2022/10/04 02:16:26;;;;;;;52.57;38.70;;;;;;;;;;4980622;28;20290;-42
2022/10/04 02:18:53;;;;;;;42.77;33.67;;;;;;;;;;4982967;28;20203;-42
2022/10/04 02:21:20;;;;;;;40.07;33.50;;;;;;;;;;4984406;28;20205;-43
2022/10/04 02:23:46;;;;;;;46.33;38.37;;;;;;;;;;4982949;28;20334;-43
2022/10/04 02:26:13;;;;;;;47.57;37.33;;;;;;;;;;4978519;28;20783;-43
2022/10/04 02:28:39;;;;;;;49.73;37.13;;;;;;;;;;4978864;28;20597;-42
2022/10/04 02:33:51;;;;;;;57.90;45.43;;;;;;;;;;4983397;28;20976;-41
2022/10/04 02:36:20;;;;;;;58.30;43.63;;;;;;;;;;4982764;28;20177;-43
2022/10/04 02:38:46;;;;;;;48.27;38.13;;;;;;;;;;4978950;28;20216;-43
2022/10/04 02:41:20;;;;;;;47.40;38.57;;;;;;;;;;4981678;28;20618;-43
2022/10/04 02:43:49;;;;;;;56.23;42.77;;;;;;;;;;4982269;28;20326;-43
2022/10/04 02:46:20;;;;;;;48.60;38.37;;;;;;;;;;4984364;28;20248;-43
2022/10/04 02:48:47;;;;;;;44.70;37.20;;;;;;;;;;5013612;28;20186;-42
2022/10/04 02:51:17;;;;;;;64.07;45.77;;;;;;;;;;4978990;28;20178;-42
2022/10/04 02:54:06;;;;;;;61.73;47.30;;;;;;;;;;4982186;28;20502;-43
2022/10/04 02:56:33;;;;;;;54.47;41.90;;;;;;;;;;4984431;28;20666;-43
2022/10/04 02:59:03;;;;;;;55.60;40.63;;;;;;;;;;4983528;28;20266;-42
2022/10/04 03:01:40;;;;;;;51.83;41.73;;;;;;;;;;4982804;28;20483;-43
2022/10/04 03:04:06;;;;;;;52.23;40.00;;;;;;;;;;4978985;28;20208;-42
2022/10/04 03:06:32;;;;;;;44.27;37.40;;;;;;;;;;4984820;28;20741;-44
2022/10/04 03:09:01;;;;;;;54.97;41.77;;;;;;;;;;4980247;28;20174;-42
2022/10/04 03:11:30;;;;;;;56.73;45.20;;;;;;;;;;4979777;28;20582;-44
2022/10/04 03:13:58;;;;;;;73.67;51.97;;;;;;;;;;4978358;28;20528;-43
2022/10/04 03:16:24;;;;;;;51.33;40.23;;;;;;;;;;4977340;28;20299;-43
2022/10/04 03:18:52;;;;;;;51.13;40.53;;;;;;;;;;4983781;28;20555;-43
2022/10/04 03:21:19;;;;;;;64.17;48.50;;;;;;;;;;4981113;28;20189;-43
2022/10/04 03:23:47;;;;;;;60.47;45.83;;;;;;;;;;4981722;28;20201;-43
2022/10/04 03:26:25;;;;;;;52.33;41.77;;;;;;;;;;4979359;28;20424;-43
2022/10/04 03:28:51;;;;;;;52.27;39.67;;;;;;;;;;4978847;28;20185;-43
2022/10/04 03:31:18;;;;;;;56.97;42.07;;;;;;;;;;4976379;28;20792;-45
2022/10/04 03:33:45;;;;;;;42.47;35.67;;;;;;;;;;4981410;28;20189;-42
2022/10/04 03:36:18;;;;;;;54.97;40.67;;;;;;;;;;4978938;28;20192;-42
2022/10/04 03:38:46;;;;;;;51.27;38.87;;;;;;;;;;4976333;28;20819;-43
2022/10/04 03:41:13;;;;;;;39.43;31.33;;;;;;;;;;4976695;28;20184;-42
2022/10/04 03:43:42;;;;;;;39.63;32.70;;;;;;;;;;4977363;28;20720;-42
2022/10/04 03:46:09;;;;;;;44.53;34.83;;;;;;;;;;4979335;28;20178;-42
2022/10/04 03:48:46;;;;;;;40.90;33.43;;;;;;;;;;4979989;28;20659;-43
2022/10/04 03:51:14;;;;;;;41.30;32.73;;;;;;;;;;4980122;28;20188;-43
2022/10/04 03:53:42;;;;;;;45.40;35.30;;;;;;;;;;4976324;28;20315;-43
2022/10/04 03:56:11;;;;;;;47.60;35.30;;;;;;;;;;4977749;28;20239;-42
2022/10/04 03:58:37;;;;;;;39.63;32.03;;;;;;;;;;4977983;28;20255;-43
2022/10/04 04:01:13;;;;;;;46.13;33.80;;;;;;;;;;4980738;28;20189;-43
2022/10/04 04:03:58;;;;;;;46.13;31.00;;;;;;;;;;4973497;28;20441;-43
2022/10/04 04:06:25;;;;;;;47.97;32.60;;;;;;;;;;4975783;28;20291;-42
2022/10/04 04:08:52;;;;;;;59.57;39.13;;;;;;;;;;4979042;28;20480;-43
2022/10/04 04:11:23;;;;;;;65.03;41.80;;;;;;;;;;4978354;28;20569;-43
2022/10/04 04:13:55;;;;;;;53.67;34.93;;;;;;;;;;4977296;28;20292;-42
2022/10/04 04:16:27;;;;;;;71.87;41.50;;;;;;;;;;4979821;28;20591;-42
2022/10/04 04:18:53;;;;;;;63.43;40.17;;;;;;;;;;4976725;28;21098;-41
2022/10/04 04:21:23;;;;;;;46.33;34.87;;;;;;;;;;4978587;28;21025;-42
2022/10/04 04:24:09;;;;;;;57.93;38.30;;;;;;;;;;4981161;28;20968;-42
2022/10/04 04:26:35;;;;;;;58.70;38.17;;;;;;;;;;4984779;28;20586;-42
2022/10/04 04:29:04;;;;;;;58.97;39.23;;;;;;;;;;4975730;28;20170;-43
2022/10/04 04:31:33;;;;;;;59.30;40.40;;;;;;;;;;4978669;28;20187;-42
2022/10/04 04:34:01;;;;;;;58.87;39.73;;;;;;;;;;4984956;28;20330;-43
2022/10/04 04:36:28;;;;;;;70.43;43.53;;;;;;;;;;4980105;28;20402;-43
2022/10/04 04:41:50;;;;;;;68.73;43.17;;;;;;;;;;4979310;28;20705;-43
2022/10/04 04:44:17;;;;;;;76.23;48.80;;;;;;;;;;4978635;28;20204;-43
2022/10/04 04:46:44;;;;;;;66.53;45.53;;;;;;;;;;4980059;28;20173;-43
2022/10/04 04:49:11;;;;;;;77.13;48.20;;;;;;;;;;4983050;28;20998;-43
2022/10/04 04:51:37;;;;;;;84.77;46.73;;;;;;;;;;4982146;28;20998;-43
2022/10/04 04:54:05;;;;;;;59.87;40.00;;;;;;;;;;4976083;28;20208;-43
2022/10/04 04:56:32;;;;;;;62.30;40.20;;;;;;;;;;4975213;28;20263;-45
2022/10/04 04:59:00;;;;;;;77.17;46.53;;;;;;;;;;5005131;28;20184;-43
2022/10/04 05:01:29;;;;;;;61.40;39.87;;;;;;;;;;4978379;28;20258;-41
2022/10/04 05:04:01;;;;;;;70.57;42.30;;;;;;;;;;4977007;28;20212;-43
2022/10/04 05:06:29;;;;;;;64.77;42.20;;;;;;;;;;4977863;28;20688;-43
2022/10/04 05:08:55;;;;;;;48.47;36.50;;;;;;;;;;4975813;28;20185;-43
2022/10/04 05:11:22;;;;;;;53.43;38.40;;;;;;;;;;4975136;28;20632;-43
2022/10/04 05:13:51;;;;;;;57.63;40.00;;;;;;;;;;4977262;28;20235;-42
2022/10/04 05:16:36;;;;;;;53.70;38.30;;;;;;;;;;4978410;28;20528;-42
2022/10/04 05:19:05;;;;;;;81.47;52.17;;;;;;;;;;4973311;28;21655;-43
2022/10/04 05:21:33;;;;;;;60.23;40.83;;;;;;;;;;4966996;28;20977;-45
2022/10/04 05:24:08;;;;;;;63.57;43.07;;;;;;;;;;4975504;28;20825;-43
2022/10/04 05:26:34;;;;;;;67.43;45.77;;;;;;;;;;4974656;28;20177;-43
2022/10/04 05:29:06;;;;;;;85.07;55.33;;;;;;;;;;4973290;28;20207;-41
2022/10/04 05:31:41;;;;;;;87.40;53.27;;;;;;;;;;4975359;28;20173;-43
2022/10/04 05:34:18;;;;;;;65.97;45.40;;;;;;;;;;4972889;28;20798;-43
2022/10/04 05:36:45;;;;;;;65.97;46.57;;;;;;;;;;4972601;28;20614;-42
2022/10/04 05:39:35;;;;;;;62.67;45.63;;;;;;;;;;4976238;28;20212;-43
2022/10/04 05:42:01;;;;;;;68.90;48.77;;;;;;;;;;4981594;28;20181;-43
2022/10/04 05:44:57;;;;;;;80.00;50.23;;;;;;;;;;4983865;28;20519;-43
2022/10/04 05:47:26;;;;;;;73.30;51.33;;;;;;;;;;4978571;28;20219;-43
2022/10/04 05:49:54;;;;;;;95.33;57.47;;;;;;;;;;4987552;28;20174;-43
2022/10/04 05:52:32;;;;;;;95.43;56.60;;;;;;;;;;4986562;28;20475;-43
2022/10/04 05:55:15;;;;;;;84.03;51.33;;;;;;;;;;4986599;28;20185;-43
2022/10/04 05:57:41;;;;;;;94.00;53.57;;;;;;;;;;4977393;28;20176;-43
2022/10/04 06:00:13;;;;;;;96.20;56.47;;;;;;;;;;4985920;28;20816;-45
2022/10/04 06:03:04;;;;;;;124.57;65.33;;;;;;;;;;4986413;28;20185;-43
2022/10/04 06:05:48;;;;;;;125.63;67.30;;;;;;;;;;4987347;28;20193;-43
2022/10/04 06:08:27;;;;;;;113.10;62.67;;;;;;;;;;4980069;28;20578;-43
2022/10/04 06:11:14;;;;;;;124.60;64.67;;;;;;;;;;4982204;28;20492;-43
2022/10/04 06:13:40;;;;;;;124.73;67.17;;;;;;;;;;4983295;28;20283;-43
2022/10/04 06:16:35;;;;;;;106.60;58.27;;;;;;;;;;4982268;28;20354;-43
2022/10/04 06:19:07;;;;;;;119.33;64.40;;;;;;;;;;5004503;28;21063;-41
2022/10/04 06:21:44;;;;;;;115.27;64.07;;;;;;;;;;4984677;28;20210;-42
2022/10/04 06:24:34;;;;;;;138.97;67.60;;;;;;;;;;4986067;28;20204;-44
2022/10/04 06:27:05;;;;;;;137.40;68.30;;;;;;;;;;4989971;28;20495;-43
2022/10/04 06:29:37;;;;;;;143.87;71.00;;;;;;;;;;4990052;28;20615;-41
2022/10/04 06:32:11;;;;;;;158.37;76.40;;;;;;;;;;4987802;28;20512;-43
2022/10/04 06:34:37;;;;;;;141.97;71.50;;;;;;;;;;4983142;28;20659;-44
2022/10/04 06:37:15;;;;;;;119.10;63.30;;;;;;;;;;4981634;28;20572;-41
2022/10/04 06:39:53;;;;;;;186.80;84.63;;;;;;;;;;4981982;28;20184;-42
2022/10/04 06:42:38;;;;;;;138.70;71.90;;;;;;;;;;4984804;28;20179;-42
2022/10/04 06:45:16;;;;;;;127.70;71.93;;;;;;;;;;4985788;28;20208;-43
2022/10/04 06:47:46;;;;;;;164.23;83.97;;;;;;;;;;4987066;28;20349;-43
2022/10/04 06:50:23;;;;;;;146.83;78.67;;;;;;;;;;4985592;28;20177;-43
2022/10/04 06:53:19;;;;;;;140.73;76.03;;;;;;;;;;4983693;28;20476;-43
2022/10/04 06:55:54;;;;;;;135.30;73.10;;;;;;;;;;4985496;28;20224;-43
2022/10/04 06:58:20;;;;;;;147.00;77.23;;;;;;;;;;4989235;28;20176;-44
2022/10/04 07:01:03;;;;;;;133.63;73.93;;;;;;;;;;4984114;28;20339;-43
2022/10/04 07:03:47;;;;;;;138.80;78.07;;;;;;;;;;4986211;28;20286;-43
2022/10/04 07:06:13;;;;;;;128.87;67.23;;;;;;;;;;5013881;28;20166;-43
2022/10/04 07:08:48;;;;;;;136.27;71.57;;;;;;;;;;4983734;28;20303;-43
2022/10/04 07:11:16;;;;;;;118.57;64.03;;;;;;;;;;4988355;28;20467;-43
2022/10/04 07:14:02;;;;;;;111.30;61.27;;;;;;;;;;4981269;28;20178;-44
2022/10/04 07:16:36;;;;;;;98.57;57.27;;;;;;;;;;4968174;28;20717;-43
2022/10/04 07:19:05;;;;;;;89.20;52.87;;;;;;;;;;4984281;28;20685;-43
2022/10/04 07:21:57;;;;;;;89.50;51.50;;;;;;;;;;4985609;28;20847;-44
2022/10/04 07:24:26;;;;;;;90.20;50.00;;;;;;;;;;4997024;28;20570;-42
2022/10/04 07:26:52;;;;;;;77.33;46.70;;;;;;;;;;4985783;28;20192;-43
2022/10/04 07:29:21;;;;;;;75.80;44.67;;;;;;;;;;4986528;28;20402;-43
2022/10/04 07:31:52;;;;;;;77.90;42.70;;;;;;;;;;4985685;28;20276;-43
2022/10/04 07:34:29;;;;;;;68.10;42.53;;;;;;;;;;4988638;28;20177;-43
2022/10/04 07:37:02;;;;;;;72.27;44.17;;;;;;;;;;4989214;28;20941;-43
2022/10/04 07:39:30;;;;;;;81.43;46.33;;;;;;;;;;4986698;28;20177;-43
2022/10/04 07:42:00;;;;;;;80.07;50.73;;;;;;;;;;4981574;28;20663;-43
2022/10/04 07:44:38;;;;;;;78.57;50.67;;;;;;;;;;4986756;28;20272;-43
2022/10/04 07:47:28;;;;;;;85.07;50.73;;;;;;;;;;4987804;28;20184;-42
2022/10/04 07:49:54;;;;;;;82.07;48.97;;;;;;;;;;4988883;28;20470;-43
2022/10/04 07:52:39;;;;;;;78.47;49.03;;;;;;;;;;4983700;28;20191;-43
2022/10/04 07:55:24;;;;;;;75.33;46.73;;;;;;;;;;4982294;28;20583;-44
2022/10/04 07:57:55;;;;;;;75.93;45.03;;;;;;;;;;4982699;28;20659;-43
2022/10/04 08:00:31;;;;;;;74.30;44.10;;;;;;;;;;4985924;28;20729;-43
2022/10/04 08:03:09;;;;;;;66.07;41.07;;;;;;;;;;4988427;28;20701;-45
2022/10/04 08:05:35;;;;;;;69.07;43.83;;;;;;;;;;4983726;28;20307;-45
2022/10/04 08:08:20;;;;;;;65.97;40.80;;;;;;;;;;4985318;28;20279;-44
2022/10/04 08:11:05;;;;;;;65.33;39.93;;;;;;;;;;4979009;28;20173;-44
2022/10/04 08:13:31;;;;;;;71.93;45.17;;;;;;;;;;4988341;28;20168;-44
2022/10/04 08:16:02;;;;;;;64.60;41.30;;;;;;;;;;4991739;28;20566;-43
2022/10/04 08:18:59;;;;;;;54.07;36.97;;;;;;;;;;4987946;28;20249;-44
2022/10/04 08:21:38;;;;;;;45.33;32.53;;;;;;;;;;4976639;28;20180;-45
2022/10/04 08:24:14;;;;;;;53.20;35.03;;;;;;;;;;4983491;28;20239;-44
2022/10/04 08:26:40;;;;;;;51.37;33.97;;;;;;;;;;4988239;28;20581;-42
2022/10/04 08:32:22;;;;;;;44.57;29.53;;;;;;;;;;4988600;28;20176;-42
2022/10/04 08:34:50;;;;;;;47.70;31.17;;;;;;;;;;4984233;28;20177;-42
2022/10/04 08:37:28;;;;;;;48.47;31.17;;;;;;;;;;4986106;28;20611;-45
2022/10/04 08:39:54;;;;;;;48.03;31.80;;;;;;;;;;4986836;28;20621;-44
2022/10/04 08:42:51;;;;;;;44.20;27.97;;;;;;;;;;4991774;28;20177;-42
2022/10/04 08:45:37;;;;;;;43.60;30.37;;;;;;;;;;4986021;28;20384;-41
2022/10/04 08:48:15;;;;;;;51.90;35.40;;;;;;;;;;4986134;28;20666;-42
2022/10/04 08:50:51;;;;;;;46.70;31.70;;;;;;;;;;4987148;28;20169;-42
2022/10/04 08:53:34;;;;;;;45.63;31.87;;;;;;;;;;4988322;28;20641;-42
2022/10/04 08:56:18;;;;;;;51.50;35.37;;;;;;;;;;4987847;28;20506;-43
2022/10/04 08:58:47;;;;;;;57.00;38.70;;;;;;;;;;4986097;28;20169;-43
2022/10/04 09:01:26;;;;;;;65.33;41.97;;;;;;;;;;4984564;28;20173;-45
2022/10/04 09:04:01;;;;;;;63.67;42.07;;;;;;;;;;4988789;28;20559;-42
2022/10/04 09:06:27;;;;;;;64.27;44.37;;;;;;;;;;4992971;28;20500;-43
2022/10/04 09:09:00;;;;;;;63.40;47.10;;;;;;;;;;4990657;28;20982;-44
2022/10/04 09:12:02;;;;;;;55.33;42.20;;;;;;;;;;4989196;28;20181;-44
2022/10/04 09:14:34;;;;;;;60.40;41.33;;;;;;;;;;4946427;28;20190;-44
2022/10/04 09:17:16;;;;;;;57.97;40.30;;;;;;;;;;4980614;28;20786;-45
2022/10/04 09:19:49;;;;;;;58.10;40.83;;;;;;;;;;4993407;28;20168;-44
2022/10/04 09:22:19;;;;;;;55.17;38.17;;;;;;;;;;4990884;28;20184;-44
2022/10/04 09:24:48;;;;;;;45.67;30.73;;;;;;;;;;4988175;28;20197;-44
2022/10/04 09:27:14;;;;;;;35.13;25.43;;;;;;;;;;4989537;28;20262;-43
2022/10/04 09:30:00;;;;;;;35.17;22.70;;;;;;;;;;4989376;28;20482;-42
2022/10/04 09:32:29;;;;;;;39.87;23.20;;;;;;;;;;4990888;28;20292;-43
2022/10/04 09:35:14;;;;;;;37.40;22.10;;;;;;;;;;4988524;28;20292;-42
2022/10/04 09:37:50;;;;;;;34.60;20.90;;;;;;;;;;4990557;28;20177;-44
2022/10/04 09:40:19;;;;;;;34.13;21.67;;;;;;;;;;4990024;28;20671;-44
2022/10/04 09:43:16;;;;;;;33.20;21.63;;;;;;;;;;4990957;28;20172;-43
2022/10/04 09:46:01;;;;;;;32.20;21.93;;;;;;;;;;5002078;28;20747;-43
2022/10/04 09:48:27;;;;;;;33.27;21.93;;;;;;;;;;4985916;28;20165;-42
2022/10/04 09:50:56;;;;;;;29.70;19.33;;;;;;;;;;5003335;28;20173;-43
2022/10/04 09:53:34;;;;;;;36.13;23.23;;;;;;;;;;4992059;28;20170;-41
2022/10/04 09:56:18;;;;;;;39.97;23.67;;;;;;;;;;4994155;28;20724;-43
2022/10/04 09:58:45;;;;;;;35.73;23.27;;;;;;;;;;4988650;28;20423;-43
2022/10/04 10:01:30;;;;;;;32.37;21.70;;;;;;;;;;4985937;28;20823;-43
2022/10/04 10:03:57;;;;;;;33.83;21.10;;;;;;;;;;4987818;28;20204;-43
2022/10/04 10:06:40;;;;;;;32.80;20.97;;;;;;;;;;4990327;28;20169;-43
2022/10/04 10:09:21;;;;;;;29.47;20.07;;;;;;;;;;4988974;28;20272;-42
2022/10/04 10:14:35;;;;;;;31.50;20.80;;;;;;;;;;4988707;28;20190;-43
2022/10/04 10:17:01;;;;;;;31.60;20.57;;;;;;;;;;4991233;28;20491;-43
2022/10/04 10:19:40;;;;;;;32.87;20.17;;;;;;;;;;4986784;28;20186;-43
2022/10/04 10:22:10;;;;;;;33.67;20.37;;;;;;;;;;4986528;28;20173;-44
2022/10/04 10:24:36;;;;;;;31.17;21.70;;;;;;;;;;4986634;28;20645;-44
2022/10/04 10:27:08;;;;;;;32.53;21.93;;;;;;;;;;4987513;28;20185;-43
2022/10/04 10:29:48;;;;;;;29.23;20.40;;;;;;;;;;4992953;28;20496;-43
2022/10/04 10:32:33;;;;;;;32.17;21.43;;;;;;;;;;4989289;28;20291;-43
2022/10/04 10:35:18;;;;;;;35.33;22.73;;;;;;;;;;4987974;28;20737;-42
2022/10/04 10:37:57;;;;;;;26.23;19.27;;;;;;;;;;4985022;28;20177;-43
2022/10/04 10:40:43;;;;;;;31.83;21.73;;;;;;;;;;4987152;28;20298;-43
2022/10/04 10:43:17;;;;;;;27.70;20.37;;;;;;;;;;4991063;28;20806;-43
2022/10/04 10:45:44;;;;;;;22.90;17.00;;;;;;;;;;4989313;28;20199;-43
2022/10/04 10:48:26;;;;;;;26.13;18.60;;;;;;;;;;4988489;28;20216;-42
2022/10/04 10:50:57;;;;;;;30.60;21.27;;;;;;;;;;4983973;28;20253;-42
2022/10/04 10:53:44;;;;;;;23.63;18.20;;;;;;;;;;4988574;28;20844;-43
2022/10/04 10:56:12;;;;;;;28.70;18.43;;;;;;;;;;4987308;28;20499;-43
2022/10/04 10:58:43;;;;;;;28.00;20.50;;;;;;;;;;4984779;28;20882;-43
2022/10/04 11:01:24;;;;;;;32.20;22.47;;;;;;;;;;4988617;28;20700;-44
2022/10/04 11:03:53;;;;;;;32.07;21.40;;;;;;;;;;4989127;28;20387;-44
2022/10/04 11:06:24;;;;;;;31.87;19.83;;;;;;;;;;4990429;28;20165;-43
2022/10/04 11:08:50;;;;;;;30.10;19.40;;;;;;;;;;4981974;28;20820;-45
2022/10/04 11:11:16;;;;;;;29.37;19.37;;;;;;;;;;4984953;28;20972;-42
2022/10/04 11:14:00;;;;;;;27.23;18.83;;;;;;;;;;4986480;28;20937;-43
2022/10/04 11:16:26;;;;;;;32.70;19.00;;;;;;;;;;4985950;28;20172;-42
2022/10/04 11:18:55;;;;;;;25.10;18.30;;;;;;;;;;4989401;28;20173;-41
2022/10/04 11:21:27;;;;;;;32.80;21.73;;;;;;;;;;4987135;28;20603;-43
2022/10/04 11:24:02;;;;;;;28.77;19.63;;;;;;;;;;4986041;28;20173;-43
2022/10/04 11:26:32;;;;;;;31.03;20.33;;;;;;;;;;4988736;28;20341;-43
2022/10/04 11:29:13;;;;;;;29.40;18.30;;;;;;;;;;4992898;28;20265;-43
2022/10/04 11:31:54;;;;;;;31.67;20.03;;;;;;;;;;4989181;28;20177;-43
2022/10/04 11:34:23;;;;;;;29.90;20.53;;;;;;;;;;4984768;28;20168;-43
2022/10/04 11:36:56;;;;;;;28.97;19.07;;;;;;;;;;4989030;28;20266;-42
2022/10/04 11:39:46;;;;;;;27.33;19.07;;;;;;;;;;4988053;28;20170;-43
2022/10/04 11:42:22;;;;;;;31.80;22.37;;;;;;;;;;4989549;28;20295;-45
2022/10/04 11:44:58;;;;;;;32.10;22.20;;;;;;;;;;4986585;28;20196;-43
2022/10/04 11:47:24;;;;;;;33.33;23.10;;;;;;;;;;4984780;28;21059;-42
2022/10/04 11:49:56;;;;;;;35.40;25.07;;;;;;;;;;4987302;28;20581;-43
2022/10/04 11:52:23;;;;;;;28.17;20.63;;;;;;;;;;4990684;28;20626;-43
2022/10/04 11:54:52;;;;;;;36.87;23.93;;;;;;;;;;4988381;28;20503;-43
2022/10/04 11:57:18;;;;;;;33.67;23.30;;;;;;;;;;4986139;28;20685;-43
2022/10/04 12:00:00;;;;;;;37.67;25.40;;;;;;;;;;4988840;28;20176;-43
2022/10/04 12:02:35;;;;;;;39.50;27.10;;;;;;;;;;4987344;28;20357;-43
2022/10/04 12:05:05;;;;;;;36.67;24.97;;;;;;;;;;4986554;28;20461;-42
2022/10/04 12:07:38;;;;;;;44.03;28.93;;;;;;;;;;4984577;28;20440;-43
2022/10/04 12:10:23;;;;;;;48.17;31.40;;;;;;;;;;4985449;28;20581;-41
2022/10/04 12:12:59;;;;;;;45.60;27.97;;;;;;;;;;4984545;28;20915;-43
2022/10/04 12:15:26;;;;;;;43.37;28.97;;;;;;;;;;4985465;28;20180;-42
2022/10/04 12:18:05;;;;;;;41.60;28.40;;;;;;;;;;4988362;28;20177;-42
2022/10/04 12:20:51;;;;;;;43.87;29.27;;;;;;;;;;4984641;28;20204;-43
2022/10/04 12:23:29;;;;;;;43.40;28.80;;;;;;;;;;4984879;28;20488;-42
2022/10/04 12:26:08;;;;;;;37.10;26.57;;;;;;;;;;4983452;28;20256;-43
2022/10/04 12:28:53;;;;;;;38.67;26.17;;;;;;;;;;4983089;28;20500;-43
2022/10/04 12:31:21;;;;;;;42.63;27.70;;;;;;;;;;4987550;28;20243;-43
2022/10/04 12:33:47;;;;;;;30.63;21.73;;;;;;;;;;4985571;28;20435;-45
2022/10/04 12:36:31;;;;;;;34.90;22.00;;;;;;;;;;4982131;28;20184;-43
2022/10/04 12:39:13;;;;;;;31.73;21.80;;;;;;;;;;4984675;28;20673;-42
2022/10/04 12:41:57;;;;;;;34.70;24.30;;;;;;;;;;4987805;28;20184;-43
2022/10/04 12:44:31;;;;;;;32.70;22.23;;;;;;;;;;4990648;28;20478;-43
2022/10/04 12:46:57;;;;;;;32.23;21.53;;;;;;;;;;4984791;28;20180;-43
2022/10/04 12:49:38;;;;;;;27.23;19.17;;;;;;;;;;4986096;28;20201;-43
2022/10/04 12:52:31;;;;;;;31.80;20.77;;;;;;;;;;4986600;28;20490;-43
2022/10/04 12:55:20;;;;;;;28.93;20.00;;;;;;;;;;4991431;28;21092;-43
2022/10/04 12:58:07;;;;;;;28.70;20.57;;;;;;;;;;4986547;28;20185;-43
2022/10/04 13:00:39;;;;;;;29.07;20.50;;;;;;;;;;4984967;28;20212;-44
2022/10/04 13:03:06;;;;;;;25.67;18.30;;;;;;;;;;4983176;28;20469;-43
2022/10/04 13:05:44;;;;;;;25.30;18.43;;;;;;;;;;4984985;28;20520;-43
2022/10/04 13:08:37;;;;;;;27.67;20.03;;;;;;;;;;4983240;28;20178;-43
2022/10/04 13:11:06;;;;;;;26.80;18.63;;;;;;;;;;4991919;28;20734;-43
2022/10/04 13:13:52;;;;;;;25.47;16.97;;;;;;;;;;4986904;28;20481;-43
2022/10/04 13:16:36;;;;;;;22.80;16.13;;;;;;;;;;4980909;28;21032;-43
2022/10/04 13:19:30;;;;;;;18.90;12.70;;;;;;;;;;4979711;28;20185;-43
2022/10/04 13:22:01;;;;;;;18.37;13.37;;;;;;;;;;4985388;28;20191;-43
2022/10/04 13:24:28;;;;;;;21.27;15.37;;;;;;;;;;4982580;28;20240;-43
2022/10/04 13:27:01;;;;;;;24.47;16.47;;;;;;;;;;4983307;28;20613;-44
2022/10/04 13:29:45;;;;;;;21.23;15.23;;;;;;;;;;4982965;28;20697;-43
2022/10/04 13:32:21;;;;;;;25.17;15.33;;;;;;;;;;4973125;28;20597;-44
2022/10/04 13:34:53;;;;;;;22.80;14.63;;;;;;;;;;4959622;28;20387;-43
2022/10/04 13:37:19;;;;;;;21.03;13.73;;;;;;;;;;4961377;28;20472;-43
2022/10/04 13:40:20;;;;;;;16.63;13.30;;;;;;;;;;4975993;28;20285;-43
2022/10/04 13:42:49;;;;;;;18.67;11.90;;;;;;;;;;4977362;28;20193;-43
2022/10/04 13:45:20;;;;;;;18.10;11.47;;;;;;;;;;4985140;28;20279;-43
2022/10/04 13:47:46;;;;;;;15.03;10.10;;;;;;;;;;4984957;28;20220;-43
2022/10/04 13:50:16;;;;;;;16.97;11.00;;;;;;;;;;4986068;28;20252;-44
2022/10/04 13:56:52;;;;;;;14.47;9.57;;;;;;;;;;4991108;28;21121;-43
2022/10/04 13:58:59;;;;;;;14.60;10.03;;;;;;;;;;4984517;28;20188;-43
2022/10/04 14:01:37;;;;;;;11.87;9.33;;;;;;;;;;4985581;28;20195;-42
2022/10/04 14:04:16;;;;;;;13.77;10.20;;;;;;;;;;4950800;28;20240;-43
2022/10/04 14:06:42;;;;;;;11.77;9.20;;;;;;;;;;4963424;28;20169;-43
2022/10/04 14:09:17;;;;;;;14.97;9.50;;;;;;;;;;4990801;28;20182;-44
2022/10/04 14:12:02;;;;;;;15.47;10.13;;;;;;;;;;4985199;28;20846;-43
2022/10/04 14:14:39;;;;;;;15.50;10.17;;;;;;;;;;4990701;28;20460;-43
2022/10/04 14:17:13;;;;;;;14.90;10.63;;;;;;;;;;4989004;28;20291;-42
2022/10/04 14:19:39;;;;;;;13.80;10.17;;;;;;;;;;4985148;28;20172;-42
2022/10/04 14:22:05;;;;;;;15.90;11.83;;;;;;;;;;4989847;28;20176;-42
2022/10/04 14:24:43;;;;;;;18.00;11.07;;;;;;;;;;4986692;28;20211;-43
2022/10/04 14:27:12;;;;;;;17.03;12.00;;;;;;;;;;4990544;28;20497;-43
2022/10/04 14:29:47;;;;;;;17.80;13.23;;;;;;;;;;4985868;28;20178;-42
2022/10/04 14:32:36;;;;;;;16.27;12.90;;;;;;;;;;4984803;28;20169;-42
2022/10/04 14:35:11;;;;;;;18.37;13.43;;;;;;;;;;4987039;28;20514;-42
2022/10/04 14:37:56;;;;;;;16.30;11.83;;;;;;;;;;4985917;28;20641;-43
2022/10/04 14:40:41;;;;;;;16.33;11.77;;;;;;;;;;4982089;28;20621;-43
2022/10/04 14:43:23;;;;;;;14.20;10.37;;;;;;;;;;4982388;28;20185;-43
2022/10/04 14:46:07;;;;;;;17.47;10.17;;;;;;;;;;4978689;28;20205;-43
2022/10/04 14:48:40;;;;;;;12.87;9.77;;;;;;;;;;4981793;28;20819;-43
2022/10/04 14:51:09;;;;;;;15.73;10.87;;;;;;;;;;4983146;28;20570;-43
2022/10/04 14:53:41;;;;;;;12.60;9.10;;;;;;;;;;4979603;28;20184;-42
2022/10/04 14:56:28;;;;;;;13.17;10.00;;;;;;;;;;4978205;28;20700;-43
2022/10/04 14:59:10;;;;;;;14.03;9.47;;;;;;;;;;4983519;28;20505;-43
2022/10/04 15:01:38;;;;;;;10.50;8.03;;;;;;;;;;4989983;28;20184;-42
2022/10/04 15:04:24;;;;;;;10.23;6.83;;;;;;;;;;4983579;28;20533;-43
2022/10/04 15:06:58;;;;;;;8.97;6.47;;;;;;;;;;4981073;28;20184;-43
2022/10/04 15:09:45;;;;;;;8.80;6.17;;;;;;;;;;4980443;28;20247;-43